sensor_id;sensor_type;location;lat;lon;timestamp;P1;durP1;ratioP1;P2;durP2;ratioP2
71655;SDS011;59497;48.798;8.816;2023-05-02T00:00:06;4.13;;;3.28;;
71655;SDS011;59497;48.798;8.816;2023-05-02T00:02:32;3.65;;;3.28;;
71655;SDS011;59497;48.798;8.816;2023-05-02T00:04:57;3.97;;;3.23;;
71655;SDS011;59497;48.798;8.816;2023-05-02T00:07:22;5.33;;;3.60;;
71655;SDS011;59497;48.798;8.816;2023-05-02T00:09:47;3.80;;;2.93;;
71655;SDS011;59497;48.798;8.816;2023-05-02T00:12:12;4.33;;;3.47;;
71655;SDS011;59497;48.798;8.816;2023-05-02T00:14:38;3.83;;;3.10;;
71655;SDS011;59497;48.798;8.816;2023-05-02T00:17:03;4.67;;;3.43;;
71655;SDS011;59497;48.798;8.816;2023-05-02T00:19:28;5.07;;;3.80;;
71655;SDS011;59497;48.798;8.816;2023-05-02T00:21:53;4.93;;;3.22;;
71655;SDS011;59497;48.798;8.816;2023-05-02T00:24:18;5.50;;;3.70;;
71655;SDS011;59497;48.798;8.816;2023-05-02T00:26:43;5.23;;;3.23;;
71655;SDS011;59497;48.798;8.816;2023-05-02T00:29:08;5.07;;;3.73;;
71655;SDS011;59497;48.798;8.816;2023-05-02T00:31:34;5.05;;;3.92;;
71655;SDS011;59497;48.798;8.816;2023-05-02T00:33:59;7.43;;;4.33;;
71655;SDS011;59497;48.798;8.816;2023-05-02T00:36:25;5.10;;;3.67;;
71655;SDS011;59497;48.798;8.816;2023-05-02T00:38:51;4.93;;;3.33;;
71655;SDS011;59497;48.798;8.816;2023-05-02T00:41:16;4.40;;;3.40;;
71655;SDS011;59497;48.798;8.816;2023-05-02T00:43:41;5.03;;;3.97;;
71655;SDS011;59497;48.798;8.816;2023-05-02T00:46:07;4.33;;;3.50;;
71655;SDS011;59497;48.798;8.816;2023-05-02T00:48:32;4.63;;;3.47;;
71655;SDS011;59497;48.798;8.816;2023-05-02T00:50:58;7.72;;;3.78;;
71655;SDS011;59497;48.798;8.816;2023-05-02T00:53:26;4.47;;;3.20;;
71655;SDS011;59497;48.798;8.816;2023-05-02T00:55:51;5.03;;;3.60;;
71655;SDS011;59497;48.798;8.816;2023-05-02T00:58:18;6.85;;;3.83;;
71655;SDS011;59497;48.798;8.816;2023-05-02T01:06:04;6.57;;;4.18;;
71655;SDS011;59497;48.798;8.816;2023-05-02T01:08:34;5.37;;;3.70;;
71655;SDS011;59497;48.798;8.816;2023-05-02T01:11:04;6.72;;;4.03;;
71655;SDS011;59497;48.798;8.816;2023-05-02T01:13:31;5.75;;;3.75;;
71655;SDS011;59497;48.798;8.816;2023-05-02T01:15:57;5.65;;;4.25;;
71655;SDS011;59497;48.798;8.816;2023-05-02T01:18:23;6.60;;;3.80;;
71655;SDS011;59497;48.798;8.816;2023-05-02T01:20:55;6.03;;;3.37;;
71655;SDS011;59497;48.798;8.816;2023-05-02T01:23:42;5.53;;;3.90;;
71655;SDS011;59497;48.798;8.816;2023-05-02T01:26:14;6.43;;;4.00;;
71655;SDS011;59497;48.798;8.816;2023-05-02T01:28:47;5.47;;;3.90;;
71655;SDS011;59497;48.798;8.816;2023-05-02T01:31:13;4.27;;;3.43;;
71655;SDS011;59497;48.798;8.816;2023-05-02T01:33:40;4.10;;;2.72;;
71655;SDS011;59497;48.798;8.816;2023-05-02T01:36:06;3.45;;;3.15;;
71655;SDS011;59497;48.798;8.816;2023-05-02T01:38:31;4.40;;;3.00;;
71655;SDS011;59497;48.798;8.816;2023-05-02T01:40:57;2.60;;;2.40;;
71655;SDS011;59497;48.798;8.816;2023-05-02T01:43:27;3.15;;;2.60;;
71655;SDS011;59497;48.798;8.816;2023-05-02T01:45:53;3.60;;;2.73;;
71655;SDS011;59497;48.798;8.816;2023-05-02T01:48:19;5.60;;;2.88;;
71655;SDS011;59497;48.798;8.816;2023-05-02T01:50:44;4.60;;;2.87;;
71655;SDS011;59497;48.798;8.816;2023-05-02T01:53:11;6.18;;;3.10;;
71655;SDS011;59497;48.798;8.816;2023-05-02T01:55:38;4.15;;;2.95;;
71655;SDS011;59497;48.798;8.816;2023-05-02T01:58:05;5.00;;;3.30;;
71655;SDS011;59497;48.798;8.816;2023-05-02T02:00:30;4.17;;;3.30;;
71655;SDS011;59497;48.798;8.816;2023-05-02T02:02:56;6.95;;;3.10;;
71655;SDS011;59497;48.798;8.816;2023-05-02T02:05:22;4.53;;;3.50;;
71655;SDS011;59497;48.798;8.816;2023-05-02T02:07:48;4.25;;;3.13;;
71655;SDS011;59497;48.798;8.816;2023-05-02T02:10:13;5.37;;;4.17;;
71655;SDS011;59497;48.798;8.816;2023-05-02T02:12:39;6.60;;;4.00;;
71655;SDS011;59497;48.798;8.816;2023-05-02T02:15:07;6.60;;;3.95;;
71655;SDS011;59497;48.798;8.816;2023-05-02T02:17:38;5.78;;;3.97;;
71655;SDS011;59497;48.798;8.816;2023-05-02T02:20:04;5.88;;;4.05;;
71655;SDS011;59497;48.798;8.816;2023-05-02T02:22:33;7.53;;;4.03;;
71655;SDS011;59497;48.798;8.816;2023-05-02T02:24:58;5.72;;;4.45;;
71655;SDS011;59497;48.798;8.816;2023-05-02T02:27:24;7.63;;;4.53;;
71655;SDS011;59497;48.798;8.816;2023-05-02T02:29:49;5.50;;;4.17;;
71655;SDS011;59497;48.798;8.816;2023-05-02T02:32:15;5.50;;;4.40;;
71655;SDS011;59497;48.798;8.816;2023-05-02T02:34:40;5.37;;;3.93;;
71655;SDS011;59497;48.798;8.816;2023-05-02T02:37:15;5.93;;;4.07;;
71655;SDS011;59497;48.798;8.816;2023-05-02T02:47:32;7.43;;;4.70;;
71655;SDS011;59497;48.798;8.816;2023-05-02T02:55:23;6.15;;;4.50;;
71655;SDS011;59497;48.798;8.816;2023-05-02T02:57:55;7.17;;;4.43;;
71655;SDS011;59497;48.798;8.816;2023-05-02T03:00:23;11.73;;;4.15;;
71655;SDS011;59497;48.798;8.816;2023-05-02T03:02:49;6.70;;;4.40;;
71655;SDS011;59497;48.798;8.816;2023-05-02T03:05:17;6.20;;;4.40;;
71655;SDS011;59497;48.798;8.816;2023-05-02T03:07:42;7.13;;;4.80;;
71655;SDS011;59497;48.798;8.816;2023-05-02T03:10:08;6.83;;;4.70;;
71655;SDS011;59497;48.798;8.816;2023-05-02T03:12:33;6.90;;;4.53;;
71655;SDS011;59497;48.798;8.816;2023-05-02T03:17:38;6.82;;;5.03;;
71655;SDS011;59497;48.798;8.816;2023-05-02T03:20:04;6.47;;;5.10;;
71655;SDS011;59497;48.798;8.816;2023-05-02T03:22:29;8.02;;;5.18;;
71655;SDS011;59497;48.798;8.816;2023-05-02T03:24:54;7.33;;;5.43;;
71655;SDS011;59497;48.798;8.816;2023-05-02T03:27:19;8.70;;;5.65;;
71655;SDS011;59497;48.798;8.816;2023-05-02T03:29:44;6.95;;;5.20;;
71655;SDS011;59497;48.798;8.816;2023-05-02T03:32:10;6.13;;;4.67;;
71655;SDS011;59497;48.798;8.816;2023-05-02T03:34:35;6.85;;;4.80;;
71655;SDS011;59497;48.798;8.816;2023-05-02T03:37:00;7.73;;;4.60;;
71655;SDS011;59497;48.798;8.816;2023-05-02T03:39:25;8.90;;;4.45;;
71655;SDS011;59497;48.798;8.816;2023-05-02T03:41:51;7.43;;;4.93;;
71655;SDS011;59497;48.798;8.816;2023-05-02T03:44:16;6.27;;;4.57;;
71655;SDS011;59497;48.798;8.816;2023-05-02T03:46:41;5.93;;;4.30;;
71655;SDS011;59497;48.798;8.816;2023-05-02T03:49:07;6.60;;;4.63;;
71655;SDS011;59497;48.798;8.816;2023-05-02T03:51:32;7.17;;;4.57;;
71655;SDS011;59497;48.798;8.816;2023-05-02T03:53:59;7.35;;;4.70;;
71655;SDS011;59497;48.798;8.816;2023-05-02T03:56:24;6.50;;;4.85;;
71655;SDS011;59497;48.798;8.816;2023-05-02T03:58:49;7.63;;;5.17;;
71655;SDS011;59497;48.798;8.816;2023-05-02T04:01:14;8.15;;;5.28;;
71655;SDS011;59497;48.798;8.816;2023-05-02T04:03:40;8.73;;;6.13;;
71655;SDS011;59497;48.798;8.816;2023-05-02T04:06:05;7.57;;;5.00;;
71655;SDS011;59497;48.798;8.816;2023-05-02T04:08:30;8.13;;;5.27;;
71655;SDS011;59497;48.798;8.816;2023-05-02T04:10:56;6.50;;;4.73;;
71655;SDS011;59497;48.798;8.816;2023-05-02T04:13:21;8.17;;;5.13;;
71655;SDS011;59497;48.798;8.816;2023-05-02T04:15:46;6.50;;;5.27;;
71655;SDS011;59497;48.798;8.816;2023-05-02T04:18:11;8.77;;;4.80;;
71655;SDS011;59497;48.798;8.816;2023-05-02T04:20:36;7.83;;;5.23;;
71655;SDS011;59497;48.798;8.816;2023-05-02T04:23:01;7.50;;;5.20;;
71655;SDS011;59497;48.798;8.816;2023-05-02T04:25:27;7.63;;;5.67;;
71655;SDS011;59497;48.798;8.816;2023-05-02T04:27:52;8.23;;;5.55;;
71655;SDS011;59497;48.798;8.816;2023-05-02T04:30:17;7.55;;;5.00;;
71655;SDS011;59497;48.798;8.816;2023-05-02T04:32:42;9.27;;;5.80;;
71655;SDS011;59497;48.798;8.816;2023-05-02T04:35:08;9.50;;;5.40;;
71655;SDS011;59497;48.798;8.816;2023-05-02T04:37:33;8.57;;;5.70;;
71655;SDS011;59497;48.798;8.816;2023-05-02T04:39:59;7.43;;;5.33;;
71655;SDS011;59497;48.798;8.816;2023-05-02T04:42:24;7.63;;;5.50;;
71655;SDS011;59497;48.798;8.816;2023-05-02T04:44:49;7.40;;;5.73;;
71655;SDS011;59497;48.798;8.816;2023-05-02T04:47:14;8.07;;;5.05;;
71655;SDS011;59497;48.798;8.816;2023-05-02T04:49:40;8.73;;;5.27;;
71655;SDS011;59497;48.798;8.816;2023-05-02T04:52:06;9.05;;;5.75;;
71655;SDS011;59497;48.798;8.816;2023-05-02T04:54:32;9.77;;;5.93;;
71655;SDS011;59497;48.798;8.816;2023-05-02T04:56:58;8.73;;;6.22;;
71655;SDS011;59497;48.798;8.816;2023-05-02T04:59:23;8.00;;;5.50;;
71655;SDS011;59497;48.798;8.816;2023-05-02T05:01:48;9.70;;;6.17;;
71655;SDS011;59497;48.798;8.816;2023-05-02T05:04:13;7.73;;;5.80;;
71655;SDS011;59497;48.798;8.816;2023-05-02T05:06:39;8.23;;;5.83;;
71655;SDS011;59497;48.798;8.816;2023-05-02T05:09:04;8.88;;;5.30;;
71655;SDS011;59497;48.798;8.816;2023-05-02T05:11:30;10.25;;;5.70;;
71655;SDS011;59497;48.798;8.816;2023-05-02T05:13:55;8.37;;;5.83;;
71655;SDS011;59497;48.798;8.816;2023-05-02T05:16:20;11.30;;;6.50;;
71655;SDS011;59497;48.798;8.816;2023-05-02T05:18:45;8.67;;;6.50;;
71655;SDS011;59497;48.798;8.816;2023-05-02T05:21:13;8.93;;;6.78;;
71655;SDS011;59497;48.798;8.816;2023-05-02T05:23:38;10.53;;;7.30;;
71655;SDS011;59497;48.798;8.816;2023-05-02T05:28:34;9.80;;;6.40;;
71655;SDS011;59497;48.798;8.816;2023-05-02T05:31:33;9.97;;;6.57;;
71655;SDS011;59497;48.798;8.816;2023-05-02T05:33:51;10.05;;;6.65;;
71655;SDS011;59497;48.798;8.816;2023-05-02T05:36:16;9.90;;;6.47;;
71655;SDS011;59497;48.798;8.816;2023-05-02T05:38:41;9.02;;;6.75;;
71655;SDS011;59497;48.798;8.816;2023-05-02T05:41:07;10.47;;;7.23;;
71655;SDS011;59497;48.798;8.816;2023-05-02T05:43:32;10.27;;;7.33;;
71655;SDS011;59497;48.798;8.816;2023-05-02T05:45:58;9.57;;;7.20;;
71655;SDS011;59497;48.798;8.816;2023-05-02T05:48:23;10.33;;;6.90;;
71655;SDS011;59497;48.798;8.816;2023-05-02T05:50:48;13.13;;;7.60;;
71655;SDS011;59497;48.798;8.816;2023-05-02T05:53:14;11.18;;;7.72;;
71655;SDS011;59497;48.798;8.816;2023-05-02T05:55:39;10.93;;;7.83;;
71655;SDS011;59497;48.798;8.816;2023-05-02T05:58:06;10.60;;;7.38;;
71655;SDS011;59497;48.798;8.816;2023-05-02T06:00:34;11.60;;;8.03;;
71655;SDS011;59497;48.798;8.816;2023-05-02T06:03:00;12.43;;;7.85;;
71655;SDS011;59497;48.798;8.816;2023-05-02T06:05:25;14.03;;;7.63;;
71655;SDS011;59497;48.798;8.816;2023-05-02T06:07:50;12.70;;;7.80;;
71655;SDS011;59497;48.798;8.816;2023-05-02T06:10:15;10.57;;;7.13;;
71655;SDS011;59497;48.798;8.816;2023-05-02T06:12:41;11.87;;;7.77;;
71655;SDS011;59497;48.798;8.816;2023-05-02T06:15:06;12.40;;;8.17;;
71655;SDS011;59497;48.798;8.816;2023-05-02T06:17:32;12.80;;;8.37;;
71655;SDS011;59497;48.798;8.816;2023-05-02T06:19:57;12.23;;;8.37;;
71655;SDS011;59497;48.798;8.816;2023-05-02T06:22:22;14.73;;;8.73;;
71655;SDS011;59497;48.798;8.816;2023-05-02T06:24:47;12.37;;;8.47;;
71655;SDS011;59497;48.798;8.816;2023-05-02T06:27:12;13.80;;;8.35;;
71655;SDS011;59497;48.798;8.816;2023-05-02T06:29:37;13.60;;;8.90;;
71655;SDS011;59497;48.798;8.816;2023-05-02T06:32:02;13.77;;;8.37;;
71655;SDS011;59497;48.798;8.816;2023-05-02T06:34:30;14.13;;;9.33;;
71655;SDS011;59497;48.798;8.816;2023-05-02T06:36:55;18.07;;;10.03;;
71655;SDS011;59497;48.798;8.816;2023-05-02T06:39:20;17.07;;;10.17;;
71655;SDS011;59497;48.798;8.816;2023-05-02T06:41:46;14.83;;;9.33;;
71655;SDS011;59497;48.798;8.816;2023-05-02T06:44:12;17.48;;;10.63;;
71655;SDS011;59497;48.798;8.816;2023-05-02T06:46:37;16.20;;;10.18;;
71655;SDS011;59497;48.798;8.816;2023-05-02T06:49:02;15.57;;;9.77;;
71655;SDS011;59497;48.798;8.816;2023-05-02T06:51:27;17.17;;;10.50;;
71655;SDS011;59497;48.798;8.816;2023-05-02T06:53:53;16.77;;;10.80;;
71655;SDS011;59497;48.798;8.816;2023-05-02T06:56:18;16.40;;;10.47;;
71655;SDS011;59497;48.798;8.816;2023-05-02T06:58:43;19.67;;;11.80;;
71655;SDS011;59497;48.798;8.816;2023-05-02T07:01:09;19.60;;;12.83;;
71655;SDS011;59497;48.798;8.816;2023-05-02T07:03:34;20.02;;;12.60;;
71655;SDS011;59497;48.798;8.816;2023-05-02T07:05:59;18.77;;;11.97;;
71655;SDS011;59497;48.798;8.816;2023-05-02T07:08:24;20.13;;;11.80;;
71655;SDS011;59497;48.798;8.816;2023-05-02T07:10:50;20.70;;;12.83;;
71655;SDS011;59497;48.798;8.816;2023-05-02T07:13:15;24.50;;;13.77;;
71655;SDS011;59497;48.798;8.816;2023-05-02T07:15:41;24.83;;;13.57;;
71655;SDS011;59497;48.798;8.816;2023-05-02T07:18:06;22.23;;;13.18;;
71655;SDS011;59497;48.798;8.816;2023-05-02T07:20:31;22.00;;;14.00;;
71655;SDS011;59497;48.798;8.816;2023-05-02T07:22:56;24.65;;;13.68;;
71655;SDS011;59497;48.798;8.816;2023-05-02T07:25:22;29.20;;;15.50;;
71655;SDS011;59497;48.798;8.816;2023-05-02T07:27:47;26.07;;;14.50;;
71655;SDS011;59497;48.798;8.816;2023-05-02T07:30:12;30.53;;;16.83;;
71655;SDS011;59497;48.798;8.816;2023-05-02T07:32:38;24.80;;;15.23;;
71655;SDS011;59497;48.798;8.816;2023-05-02T07:35:03;34.53;;;17.73;;
71655;SDS011;59497;48.798;8.816;2023-05-02T07:37:31;35.40;;;18.37;;
71655;SDS011;59497;48.798;8.816;2023-05-02T07:39:57;32.75;;;18.20;;
71655;SDS011;59497;48.798;8.816;2023-05-02T07:42:22;36.95;;;17.90;;
71655;SDS011;59497;48.798;8.816;2023-05-02T07:44:52;33.75;;;18.77;;
71655;SDS011;59497;48.798;8.816;2023-05-02T07:47:17;34.70;;;19.60;;
71655;SDS011;59497;48.798;8.816;2023-05-02T07:49:42;35.55;;;19.10;;
71655;SDS011;59497;48.798;8.816;2023-05-02T07:52:08;36.50;;;19.57;;
71655;SDS011;59497;48.798;8.816;2023-05-02T07:54:33;38.65;;;20.15;;
71655;SDS011;59497;48.798;8.816;2023-05-02T07:56:59;34.83;;;18.63;;
71655;SDS011;59497;48.798;8.816;2023-05-02T07:59:27;36.83;;;21.08;;
71655;SDS011;59497;48.798;8.816;2023-05-02T08:01:52;40.37;;;21.17;;
71655;SDS011;59497;48.798;8.816;2023-05-02T08:04:17;37.20;;;20.17;;
71655;SDS011;59497;48.798;8.816;2023-05-02T08:06:43;40.25;;;20.35;;
71655;SDS011;59497;48.798;8.816;2023-05-02T08:09:08;36.83;;;20.35;;
71655;SDS011;59497;48.798;8.816;2023-05-02T08:11:33;38.47;;;20.47;;
71655;SDS011;59497;48.798;8.816;2023-05-02T08:13:58;36.50;;;19.63;;
71655;SDS011;59497;48.798;8.816;2023-05-02T08:16:23;35.03;;;19.40;;
71655;SDS011;59497;48.798;8.816;2023-05-02T08:18:49;36.40;;;19.83;;
71655;SDS011;59497;48.798;8.816;2023-05-02T08:21:14;38.33;;;20.40;;
71655;SDS011;59497;48.798;8.816;2023-05-02T08:23:39;38.27;;;20.17;;
71655;SDS011;59497;48.798;8.816;2023-05-02T08:26:05;41.40;;;20.63;;
71655;SDS011;59497;48.798;8.816;2023-05-02T08:28:30;38.70;;;20.55;;
71655;SDS011;59497;48.798;8.816;2023-05-02T08:30:55;45.27;;;22.53;;
71655;SDS011;59497;48.798;8.816;2023-05-02T08:33:21;41.00;;;21.33;;
71655;SDS011;59497;48.798;8.816;2023-05-02T08:35:46;46.17;;;22.70;;
71655;SDS011;59497;48.798;8.816;2023-05-02T08:38:12;41.97;;;21.10;;
71655;SDS011;59497;48.798;8.816;2023-05-02T08:40:37;40.60;;;22.40;;
71655;SDS011;59497;48.798;8.816;2023-05-02T08:43:03;38.58;;;21.63;;
71655;SDS011;59497;48.798;8.816;2023-05-02T08:45:30;38.33;;;20.10;;
71655;SDS011;59497;48.798;8.816;2023-05-02T08:47:56;41.10;;;20.83;;
71655;SDS011;59497;48.798;8.816;2023-05-02T08:50:22;38.13;;;20.23;;
71655;SDS011;59497;48.798;8.816;2023-05-02T08:52:47;37.43;;;20.03;;
71655;SDS011;59497;48.798;8.816;2023-05-02T08:55:13;35.05;;;19.67;;
71655;SDS011;59497;48.798;8.816;2023-05-02T08:57:38;36.33;;;19.57;;
71655;SDS011;59497;48.798;8.816;2023-05-02T09:00:05;36.90;;;21.05;;
71655;SDS011;59497;48.798;8.816;2023-05-02T09:02:38;35.37;;;19.53;;
71655;SDS011;59497;48.798;8.816;2023-05-02T09:05:06;35.08;;;19.48;;
71655;SDS011;59497;48.798;8.816;2023-05-02T09:07:44;31.47;;;19.03;;
71655;SDS011;59497;48.798;8.816;2023-05-02T09:10:11;34.40;;;19.00;;
71655;SDS011;59497;48.798;8.816;2023-05-02T09:12:36;31.93;;;17.43;;
71655;SDS011;59497;48.798;8.816;2023-05-02T09:15:11;33.80;;;19.37;;
71655;SDS011;59497;48.798;8.816;2023-05-02T09:17:37;35.22;;;19.52;;
71655;SDS011;59497;48.798;8.816;2023-05-02T09:20:03;32.97;;;18.58;;
71655;SDS011;59497;48.798;8.816;2023-05-02T09:22:29;36.17;;;20.20;;
71655;SDS011;59497;48.798;8.816;2023-05-02T09:24:55;37.20;;;20.17;;
71655;SDS011;59497;48.798;8.816;2023-05-02T09:27:21;33.60;;;19.30;;
71655;SDS011;59497;48.798;8.816;2023-05-02T09:29:46;30.30;;;17.93;;
71655;SDS011;59497;48.798;8.816;2023-05-02T09:32:11;29.97;;;18.90;;
71655;SDS011;59497;48.798;8.816;2023-05-02T09:34:36;29.67;;;18.85;;
71655;SDS011;59497;48.798;8.816;2023-05-02T09:37:03;29.27;;;18.00;;
71655;SDS011;59497;48.798;8.816;2023-05-02T09:39:29;31.20;;;17.63;;
71655;SDS011;59497;48.798;8.816;2023-05-02T09:41:54;30.02;;;18.10;;
71655;SDS011;59497;48.798;8.816;2023-05-02T09:44:21;29.80;;;18.00;;
71655;SDS011;59497;48.798;8.816;2023-05-02T09:46:53;28.08;;;17.25;;
71655;SDS011;59497;48.798;8.816;2023-05-02T09:49:24;29.73;;;17.65;;
71655;SDS011;59497;48.798;8.816;2023-05-02T09:52:09;25.60;;;16.47;;
71655;SDS011;59497;48.798;8.816;2023-05-02T09:54:34;27.63;;;17.27;;
71655;SDS011;59497;48.798;8.816;2023-05-02T09:57:02;25.65;;;17.10;;
71655;SDS011;59497;48.798;8.816;2023-05-02T09:59:27;26.20;;;17.43;;
71655;SDS011;59497;48.798;8.816;2023-05-02T10:01:56;26.83;;;17.63;;
71655;SDS011;59497;48.798;8.816;2023-05-02T10:04:22;30.58;;;16.95;;
71655;SDS011;59497;48.798;8.816;2023-05-02T10:06:48;23.98;;;16.17;;
71655;SDS011;59497;48.798;8.816;2023-05-02T10:09:14;24.77;;;16.45;;
71655;SDS011;59497;48.798;8.816;2023-05-02T10:11:43;27.13;;;16.23;;
71655;SDS011;59497;48.798;8.816;2023-05-02T10:14:08;26.57;;;15.90;;
71655;SDS011;59497;48.798;8.816;2023-05-02T10:16:34;25.17;;;16.65;;
71655;SDS011;59497;48.798;8.816;2023-05-02T10:19:02;25.50;;;15.80;;
71655;SDS011;59497;48.798;8.816;2023-05-02T10:21:27;26.33;;;16.63;;
71655;SDS011;59497;48.798;8.816;2023-05-02T10:23:53;30.93;;;17.60;;
71655;SDS011;59497;48.798;8.816;2023-05-02T10:26:18;29.97;;;17.37;;
71655;SDS011;59497;48.798;8.816;2023-05-02T10:28:46;24.70;;;16.25;;
71655;SDS011;59497;48.798;8.816;2023-05-02T10:31:12;22.92;;;15.25;;
71655;SDS011;59497;48.798;8.816;2023-05-02T10:33:37;23.50;;;13.93;;
71655;SDS011;59497;48.798;8.816;2023-05-02T10:36:03;21.17;;;14.50;;
71655;SDS011;59497;48.798;8.816;2023-05-02T10:38:29;21.97;;;14.70;;
71655;SDS011;59497;48.798;8.816;2023-05-02T10:40:59;22.83;;;13.95;;
71655;SDS011;59497;48.798;8.816;2023-05-02T10:43:27;24.45;;;15.30;;
71655;SDS011;59497;48.798;8.816;2023-05-02T10:45:53;22.17;;;15.07;;
71655;SDS011;59497;48.798;8.816;2023-05-02T10:50:48;22.50;;;15.87;;
71655;SDS011;59497;48.798;8.816;2023-05-02T10:53:29;22.98;;;15.43;;
71655;SDS011;59497;48.798;8.816;2023-05-02T10:58:32;26.00;;;15.75;;
71655;SDS011;59497;48.798;8.816;2023-05-02T11:01:30;22.63;;;14.60;;
71655;SDS011;59497;48.798;8.816;2023-05-02T11:03:52;23.15;;;14.57;;
71655;SDS011;59497;48.798;8.816;2023-05-02T11:06:18;23.67;;;15.40;;
71655;SDS011;59497;48.798;8.816;2023-05-02T11:08:43;22.60;;;15.67;;
71655;SDS011;59497;48.798;8.816;2023-05-02T11:13:52;21.65;;;14.40;;
71655;SDS011;59497;48.798;8.816;2023-05-02T11:16:17;23.13;;;13.67;;
71655;SDS011;59497;48.798;8.816;2023-05-02T11:19:03;20.80;;;13.70;;
71655;SDS011;59497;48.798;8.816;2023-05-02T11:21:28;24.73;;;14.40;;
71655;SDS011;59497;48.798;8.816;2023-05-02T11:24:35;23.92;;;14.50;;
71655;SDS011;59497;48.798;8.816;2023-05-02T11:26:43;24.48;;;14.10;;
71655;SDS011;59497;48.798;8.816;2023-05-02T11:29:08;23.63;;;14.57;;
71655;SDS011;59497;48.798;8.816;2023-05-02T11:34:00;24.87;;;15.87;;
71655;SDS011;59497;48.798;8.816;2023-05-02T11:36:29;24.65;;;15.20;;
71655;SDS011;59497;48.798;8.816;2023-05-02T11:38:54;22.77;;;14.43;;
71655;SDS011;59497;48.798;8.816;2023-05-02T11:41:19;25.05;;;15.70;;
71655;SDS011;59497;48.798;8.816;2023-05-02T11:43:45;31.40;;;17.37;;
71655;SDS011;59497;48.798;8.816;2023-05-02T11:46:10;35.23;;;19.13;;
71655;SDS011;59497;48.798;8.816;2023-05-02T11:48:35;33.53;;;19.03;;
71655;SDS011;59497;48.798;8.816;2023-05-02T11:51:00;33.40;;;18.57;;
71655;SDS011;59497;48.798;8.816;2023-05-02T11:53:27;34.63;;;18.17;;
71655;SDS011;59497;48.798;8.816;2023-05-02T11:56:01;33.33;;;18.07;;
71655;SDS011;59497;48.798;8.816;2023-05-02T11:58:27;31.63;;;17.83;;
71655;SDS011;59497;48.798;8.816;2023-05-02T12:00:53;29.45;;;16.88;;
71655;SDS011;59497;48.798;8.816;2023-05-02T12:03:23;28.70;;;16.20;;
71655;SDS011;59497;48.798;8.816;2023-05-02T12:05:49;27.88;;;16.17;;
71655;SDS011;59497;48.798;8.816;2023-05-02T12:08:21;31.67;;;17.50;;
71655;SDS011;59497;48.798;8.816;2023-05-02T12:10:48;31.90;;;17.30;;
71655;SDS011;59497;48.798;8.816;2023-05-02T12:13:13;30.73;;;17.80;;
71655;SDS011;59497;48.798;8.816;2023-05-02T12:15:39;33.67;;;18.07;;
71655;SDS011;59497;48.798;8.816;2023-05-02T12:18:04;33.00;;;17.67;;
71655;SDS011;59497;48.798;8.816;2023-05-02T12:20:30;33.07;;;17.87;;
71655;SDS011;59497;48.798;8.816;2023-05-02T12:22:55;34.80;;;18.20;;
71655;SDS011;59497;48.798;8.816;2023-05-02T12:25:21;32.70;;;17.80;;
71655;SDS011;59497;48.798;8.816;2023-05-02T12:27:59;32.33;;;17.70;;
71655;SDS011;59497;48.798;8.816;2023-05-02T12:30:24;31.65;;;17.10;;
71655;SDS011;59497;48.798;8.816;2023-05-02T12:32:54;30.33;;;17.77;;
71655;SDS011;59497;48.798;8.816;2023-05-02T12:35:20;32.58;;;16.95;;
71655;SDS011;59497;48.798;8.816;2023-05-02T12:37:46;30.60;;;16.27;;
71655;SDS011;59497;48.798;8.816;2023-05-02T12:40:15;31.80;;;16.70;;
71655;SDS011;59497;48.798;8.816;2023-05-02T12:42:41;29.83;;;15.98;;
71655;SDS011;59497;48.798;8.816;2023-05-02T12:45:16;27.43;;;15.47;;
71655;SDS011;59497;48.798;8.816;2023-05-02T12:47:45;28.70;;;15.27;;
71655;SDS011;59497;48.798;8.816;2023-05-02T12:50:10;27.10;;;14.80;;
71655;SDS011;59497;48.798;8.816;2023-05-02T12:52:49;25.07;;;13.33;;
71655;SDS011;59497;48.798;8.816;2023-05-02T12:55:18;24.77;;;13.68;;
71655;SDS011;59497;48.798;8.816;2023-05-02T12:57:44;20.55;;;12.32;;
71655;SDS011;59497;48.798;8.816;2023-05-02T13:00:09;21.13;;;11.83;;
71655;SDS011;59497;48.798;8.816;2023-05-02T13:02:34;21.43;;;12.07;;
71655;SDS011;59497;48.798;8.816;2023-05-02T13:05:00;21.50;;;12.70;;
71655;SDS011;59497;48.798;8.816;2023-05-02T13:07:25;22.58;;;12.07;;
71655;SDS011;59497;48.798;8.816;2023-05-02T13:09:50;23.13;;;13.02;;
71655;SDS011;59497;48.798;8.816;2023-05-02T13:12:15;23.83;;;13.20;;
71655;SDS011;59497;48.798;8.816;2023-05-02T13:14:41;21.10;;;12.60;;
71655;SDS011;59497;48.798;8.816;2023-05-02T13:17:06;22.63;;;12.17;;
71655;SDS011;59497;48.798;8.816;2023-05-02T13:19:32;24.02;;;12.90;;
71655;SDS011;59497;48.798;8.816;2023-05-02T13:21:57;20.17;;;11.37;;
71655;SDS011;59497;48.798;8.816;2023-05-02T13:24:23;20.77;;;11.33;;
71655;SDS011;59497;48.798;8.816;2023-05-02T13:26:48;20.77;;;11.80;;
71655;SDS011;59497;48.798;8.816;2023-05-02T13:29:13;19.60;;;10.83;;
71655;SDS011;59497;48.798;8.816;2023-05-02T13:31:38;19.87;;;11.30;;
71655;SDS011;59497;48.798;8.816;2023-05-02T13:34:04;19.87;;;10.73;;
71655;SDS011;59497;48.798;8.816;2023-05-02T13:36:29;20.48;;;10.10;;
71655;SDS011;59497;48.798;8.816;2023-05-02T13:38:55;15.83;;;10.07;;
71655;SDS011;59497;48.798;8.816;2023-05-02T13:41:20;15.97;;;9.57;;
71655;SDS011;59497;48.798;8.816;2023-05-02T13:43:45;15.63;;;8.37;;
71655;SDS011;59497;48.798;8.816;2023-05-02T13:46:10;12.27;;;7.77;;
71655;SDS011;59497;48.798;8.816;2023-05-02T13:48:36;13.80;;;8.17;;
71655;SDS011;59497;48.798;8.816;2023-05-02T13:51:01;12.97;;;8.37;;
71655;SDS011;59497;48.798;8.816;2023-05-02T13:53:27;15.27;;;8.98;;
71655;SDS011;59497;48.798;8.816;2023-05-02T13:55:52;14.68;;;8.80;;
71655;SDS011;59497;48.798;8.816;2023-05-02T13:58:17;13.60;;;7.87;;
71655;SDS011;59497;48.798;8.816;2023-05-02T14:00:42;14.83;;;7.93;;
71655;SDS011;59497;48.798;8.816;2023-05-02T14:03:07;15.27;;;8.60;;
71655;SDS011;59497;48.798;8.816;2023-05-02T14:05:35;14.53;;;8.43;;
71655;SDS011;59497;48.798;8.816;2023-05-02T14:08:00;15.77;;;8.63;;
71655;SDS011;59497;48.798;8.816;2023-05-02T14:10:25;14.17;;;8.10;;
71655;SDS011;59497;48.798;8.816;2023-05-02T14:12:50;14.93;;;8.07;;
71655;SDS011;59497;48.798;8.816;2023-05-02T14:15:17;14.02;;;7.90;;
71655;SDS011;59497;48.798;8.816;2023-05-02T14:17:42;13.67;;;7.77;;
71655;SDS011;59497;48.798;8.816;2023-05-02T14:20:07;14.80;;;7.30;;
71655;SDS011;59497;48.798;8.816;2023-05-02T14:22:34;14.17;;;8.20;;
71655;SDS011;59497;48.798;8.816;2023-05-02T14:24:59;11.73;;;7.60;;
71655;SDS011;59497;48.798;8.816;2023-05-02T14:27:24;12.83;;;7.37;;
71655;SDS011;59497;48.798;8.816;2023-05-02T14:29:50;12.77;;;7.20;;
71655;SDS011;59497;48.798;8.816;2023-05-02T14:32:15;14.20;;;7.27;;
71655;SDS011;59497;48.798;8.816;2023-05-02T14:34:40;11.38;;;6.50;;
71655;SDS011;59497;48.798;8.816;2023-05-02T14:37:06;10.17;;;6.10;;
71655;SDS011;59497;48.798;8.816;2023-05-02T14:39:32;13.30;;;7.68;;
71655;SDS011;59497;48.798;8.816;2023-05-02T14:41:57;10.90;;;6.13;;
71655;SDS011;59497;48.798;8.816;2023-05-02T14:44:23;11.70;;;6.63;;
71655;SDS011;59497;48.798;8.816;2023-05-02T14:46:48;12.77;;;6.77;;
71655;SDS011;59497;48.798;8.816;2023-05-02T14:49:13;11.73;;;6.43;;
71655;SDS011;59497;48.798;8.816;2023-05-02T14:51:38;13.93;;;7.37;;
71655;SDS011;59497;48.798;8.816;2023-05-02T14:54:04;10.57;;;7.40;;
71655;SDS011;59497;48.798;8.816;2023-05-02T14:56:30;12.68;;;7.55;;
71655;SDS011;59497;48.798;8.816;2023-05-02T14:58:56;12.93;;;7.23;;
71655;SDS011;59497;48.798;8.816;2023-05-02T15:01:21;10.00;;;6.67;;